createdAt,value
2024-05-09T00:00:43.473Z,101294.31
2024-05-09T00:03:31.152Z,101289.48
2024-05-09T00:05:58.842Z,101287.73
2024-05-09T00:08:26.484Z,101285.85
2024-05-09T00:10:54.117Z,101286.12
2024-05-09T00:13:21.711Z,101287.03
2024-05-09T00:15:49.168Z,101293.35
2024-05-09T00:18:16.790Z,101290.45
2024-05-09T00:20:44.495Z,101291.20
2024-05-09T00:23:13.565Z,101288.36
2024-05-09T00:25:45.495Z,101285.41
2024-05-09T00:28:13.252Z,101289.84
2024-05-09T00:30:41.148Z,101290.17
2024-05-09T00:33:10.284Z,101294.88
2024-05-09T00:35:39.114Z,101291.48
2024-05-09T00:38:07.260Z,101294.42
2024-05-09T00:40:39.969Z,101292.94
2024-05-09T00:43:12.219Z,101291.54
2024-05-09T00:45:40.751Z,101295.52
2024-05-09T00:48:11.583Z,101297.58
2024-05-09T00:50:43.850Z,101293.63
2024-05-09T00:53:13.861Z,101292.20
2024-05-09T00:55:42.169Z,101291.02
2024-05-09T00:58:14.191Z,101290.04
2024-05-09T01:00:42.219Z,101286.73
2024-05-09T01:03:12.021Z,101286.75
2024-05-09T01:05:44.831Z,101286.93
2024-05-09T01:08:13.064Z,101292.55
2024-05-09T01:10:44.184Z,101289.95
2024-05-09T01:13:13.660Z,101291.70
2024-05-09T01:15:41.402Z,101295.21
2024-05-09T01:18:13.267Z,101296.30
2024-05-09T01:20:44.306Z,101295.06
2024-05-09T01:23:15.166Z,101292.88
2024-05-09T01:25:45.591Z,101290.98
2024-05-09T01:28:14.802Z,101292.31
2024-05-09T01:30:42.468Z,101292.90
2024-05-09T01:33:11.667Z,101293.36
2024-05-09T01:35:40.894Z,101298.78
2024-05-09T01:38:12.748Z,101305.91
2024-05-09T01:40:40.691Z,101307.40
2024-05-09T01:43:09.753Z,101315.76
2024-05-09T01:45:40.483Z,101316.02
2024-05-09T01:48:10.466Z,101313.29
2024-05-09T01:50:41.793Z,101313.14
2024-05-09T01:53:13.190Z,101311.69
2024-05-09T01:55:41.275Z,101308.46
2024-05-09T01:58:09.143Z,101305.89
2024-05-09T02:00:40.772Z,101304.30
2024-05-09T02:03:15.045Z,101302.29
2024-05-09T02:05:46.768Z,101298.35
2024-05-09T02:08:18.230Z,101302.63
2024-05-09T02:10:48.114Z,101301.48
2024-05-09T02:13:16.230Z,101305.18
2024-05-09T02:15:44.072Z,101306.29
2024-05-09T02:18:12.162Z,101311.00
2024-05-09T02:20:42.262Z,101311.88
2024-05-09T02:23:10.768Z,101310.05
2024-05-09T02:25:38.281Z,101314.63
2024-05-09T02:28:06.311Z,101312.55
2024-05-09T02:30:39.827Z,101309.48
2024-05-09T02:33:11.570Z,101307.77
2024-05-09T02:35:42.054Z,101302.27
2024-05-09T02:38:10.164Z,101298.38
2024-05-09T02:40:39.523Z,101299.77
2024-05-09T02:43:10.027Z,101300.54
2024-05-09T02:45:40.062Z,101301.46
2024-05-09T02:48:13.282Z,101302.92
2024-05-09T02:50:43.661Z,101305.77
2024-05-09T02:53:12.063Z,101306.05
2024-05-09T02:55:41.126Z,101304.52
2024-05-09T02:58:09.870Z,101303.28
2024-05-09T03:00:41.376Z,101301.92
2024-05-09T03:03:12.907Z,101302.27
2024-05-09T03:05:43.961Z,101304.64
2024-05-09T03:08:12.179Z,101310.04
2024-05-09T03:10:40.108Z,101309.29
2024-05-09T03:13:08.665Z,101309.39
2024-05-09T03:15:36.394Z,101310.38
2024-05-09T03:18:05.945Z,101310.90
2024-05-09T03:20:35.833Z,101308.98
2024-05-09T03:23:08.939Z,101310.16
2024-05-09T03:25:38.492Z,101311.95
2024-05-09T03:28:06.510Z,101311.58
2024-05-09T03:30:40.447Z,101309.86
2024-05-09T03:33:11.764Z,101310.44
2024-05-09T03:35:39.754Z,101309.64
2024-05-09T03:38:07.359Z,101315.29
2024-05-09T03:40:35.178Z,101317.20
2024-05-09T03:43:02.683Z,101318.25
2024-05-09T03:45:30.157Z,101318.52
2024-05-09T03:47:58.178Z,101317.63
2024-05-09T03:50:30.663Z,101317.56
2024-05-09T03:53:03.029Z,101313.02
2024-05-09T03:55:30.773Z,101315.79
2024-05-09T03:57:58.347Z,101319.88
2024-05-09T04:00:34.248Z,101316.39
2024-05-09T04:03:07.716Z,101316.10
2024-05-09T04:05:39.229Z,101313.55
2024-05-09T04:08:07.394Z,101313.79
2024-05-09T04:10:35.640Z,101317.36
2024-05-09T04:13:04.256Z,101318.14
2024-05-09T04:15:32.777Z,101319.63
2024-05-09T04:18:01.116Z,101318.73
2024-05-09T04:20:37.482Z,101321.06
2024-05-09T04:23:11.481Z,101325.70
2024-05-09T04:25:41.613Z,101326.78
2024-05-09T04:28:09.288Z,101326.17
2024-05-09T04:30:40.025Z,101328.44
2024-05-09T04:33:13.757Z,101322.10
2024-05-09T04:35:43.392Z,101325.38
2024-05-09T04:38:15.541Z,101327.77
2024-05-09T04:40:43.878Z,101330.90
2024-05-09T04:43:15.876Z,101333.37
2024-05-09T04:45:43.487Z,101333.02
2024-05-09T04:48:11.964Z,101334.53
2024-05-09T04:50:40.027Z,101333.19
2024-05-09T04:53:11.620Z,101330.84
2024-05-09T04:55:40.431Z,101323.20
2024-05-09T04:58:08.800Z,101325.14
2024-05-09T05:00:38.648Z,101327.61
2024-05-09T05:03:10.089Z,101326.73
2024-05-09T05:05:41.545Z,101323.54
2024-05-09T05:08:17.854Z,101324.59
2024-05-09T05:10:47.829Z,101328.83
2024-05-09T05:13:17.149Z,101329.84
2024-05-09T05:15:46.640Z,101328.73
2024-05-09T05:18:15.380Z,101332.50
2024-05-09T05:20:43.243Z,101335.39
2024-05-09T05:23:13.071Z,101338.78
2024-05-09T05:25:43.423Z,101337.36
2024-05-09T05:28:11.145Z,101338.25
2024-05-09T05:30:40.053Z,101333.73
2024-05-09T05:33:19.489Z,101336.89
2024-05-09T05:35:47.799Z,101335.56
2024-05-09T05:38:15.363Z,101337.92
2024-05-09T05:40:42.946Z,101338.36
2024-05-09T05:43:18.142Z,101341.08
2024-05-09T05:45:46.048Z,101339.03
2024-05-09T05:48:17.979Z,101339.20
2024-05-09T05:50:45.986Z,101339.08
2024-05-09T05:53:14.018Z,101338.96
2024-05-09T05:55:42.446Z,101337.77
2024-05-09T05:58:11.865Z,101342.02
2024-05-09T06:00:41.707Z,101340.11
2024-05-09T06:03:12.149Z,101344.42
2024-05-09T06:05:40.895Z,101348.23
2024-05-09T06:08:09.394Z,101347.57
2024-05-09T06:10:39.920Z,101350.04
2024-05-09T06:13:10.697Z,101347.27
2024-05-09T06:15:39.153Z,101344.13
2024-05-09T06:18:11.114Z,101340.55
2024-05-09T06:20:41.395Z,101337.29
2024-05-09T06:23:10.108Z,101336.77
2024-05-09T06:25:38.489Z,101335.66
2024-05-09T06:28:06.502Z,101338.05
2024-05-09T06:30:39.997Z,101339.64
2024-05-09T06:33:12.777Z,101339.52
2024-05-09T06:35:42.657Z,101341.39
2024-05-09T06:38:10.525Z,101338.27
2024-05-09T06:40:41.729Z,101342.77
2024-05-09T06:43:14.737Z,101336.27
2024-05-09T06:45:43.484Z,101340.50
2024-05-09T06:48:11.251Z,101344.07
2024-05-09T06:50:40.884Z,101343.16
2024-05-09T06:53:10.166Z,101337.17
2024-05-09T06:55:39.786Z,101339.33
2024-05-09T06:58:08.792Z,101338.17
2024-05-09T07:00:39.755Z,101335.26
2024-05-09T07:03:10.789Z,101337.88
2024-05-09T07:05:42.730Z,101343.45
2024-05-09T07:08:11.864Z,101342.98
2024-05-09T07:10:39.557Z,101339.89
2024-05-09T07:13:14.783Z,101341.64
2024-05-09T07:15:42.846Z,101340.52
2024-05-09T07:18:20.942Z,101335.23
2024-05-09T07:20:49.533Z,101336.81
2024-05-09T07:23:18.456Z,101340.83
2024-05-09T07:25:46.604Z,101338.14
2024-05-09T07:28:19.162Z,101332.00
2024-05-09T07:30:49.569Z,101331.95
2024-05-09T07:33:23.069Z,101326.63
2024-05-09T07:35:52.113Z,101328.68
2024-05-09T07:38:19.871Z,101330.71
2024-05-09T07:40:47.530Z,101329.00
2024-05-09T07:43:15.603Z,101326.92
2024-05-09T07:45:54.104Z,101328.73
2024-05-09T07:52:38.990Z,101335.64
2024-05-09T07:53:49.004Z,101332.23
2024-05-09T07:56:22.189Z,101337.77
2024-05-09T07:58:52.513Z,101334.48
2024-05-09T08:01:21.136Z,101336.34
2024-05-09T08:03:48.984Z,101333.73
2024-05-09T08:06:16.783Z,101335.29
2024-05-09T08:08:46.426Z,101333.26
2024-05-09T08:11:13.993Z,101334.73
2024-05-09T08:13:41.464Z,101332.27
2024-05-09T08:16:09.560Z,101332.59
2024-05-09T08:18:40.556Z,101334.39
2024-05-09T08:21:08.207Z,101326.11
2024-05-09T08:23:36.290Z,101328.16
2024-05-09T08:26:03.967Z,101331.30
2024-05-09T08:28:31.509Z,101330.83
2024-05-09T08:31:00.007Z,101329.95
2024-05-09T08:33:28.924Z,101331.23
2024-05-09T08:35:56.721Z,101329.91
2024-05-09T08:38:24.234Z,101330.46
2024-05-09T08:40:51.962Z,101329.34
2024-05-09T08:43:20.264Z,101327.33
2024-05-09T08:45:49.399Z,101324.82
2024-05-09T08:48:19.517Z,101324.39
2024-05-09T08:50:49.916Z,101323.69
2024-05-09T08:53:19.469Z,101322.02
2024-05-09T08:55:47.239Z,101317.33
2024-05-09T08:58:17.780Z,101313.29
2024-05-09T09:00:46.924Z,101312.60
2024-05-09T09:03:17.919Z,101313.17
2024-05-09T09:06:14.880Z,101308.89
2024-05-09T09:08:43.923Z,101315.02
2024-05-09T09:11:11.438Z,101317.39
2024-05-09T09:13:39.032Z,101314.67
2024-05-09T09:16:06.919Z,101312.42
2024-05-09T09:18:34.832Z,101307.44
2024-05-09T09:21:03.179Z,101304.94
2024-05-09T09:23:30.909Z,101310.42
2024-05-09T09:25:59.785Z,101306.67
2024-05-09T09:28:28.017Z,101304.07
2024-05-09T09:31:02.779Z,101305.54
2024-05-09T09:33:35.457Z,101305.81
2024-05-09T09:36:03.993Z,101311.77
2024-05-09T09:38:32.243Z,101313.20
2024-05-09T09:41:05.024Z,101310.52
2024-05-09T09:43:33.079Z,101299.77
2024-05-09T09:46:01.860Z,101295.80
2024-05-09T09:48:31.370Z,101300.81
2024-05-09T09:51:00.047Z,101300.02
2024-05-09T09:53:29.035Z,101299.05
2024-05-09T09:55:57.505Z,101301.89
2024-05-09T09:58:25.465Z,101302.59
2024-05-09T10:00:53.551Z,101295.64
2024-05-09T10:03:21.163Z,101298.59
2024-05-09T10:05:49.332Z,101297.52
2024-05-09T10:08:18.381Z,101296.73
2024-05-09T10:10:50.108Z,101295.77
2024-05-09T10:13:19.763Z,101299.48
2024-05-09T10:15:51.526Z,101302.99
2024-05-09T10:18:25.067Z,101298.54
2024-05-09T10:20:55.823Z,101298.75
2024-05-09T10:23:34.254Z,101297.73
2024-05-09T10:26:04.366Z,101292.02
2024-05-09T10:28:33.585Z,101293.68
2024-05-09T10:31:15.324Z,101285.79
2024-05-09T10:33:51.192Z,101289.21
2024-05-09T10:36:24.279Z,101292.69
2024-05-09T10:38:53.529Z,101295.83
2024-05-09T10:41:22.197Z,101294.88
2024-05-09T10:43:50.638Z,101291.94
2024-05-09T10:46:21.395Z,101285.81
2024-05-09T10:48:49.457Z,101270.45
2024-05-09T10:51:19.431Z,101269.15
2024-05-09T10:53:48.316Z,101270.27
2024-05-09T10:56:17.026Z,101271.33
2024-05-09T10:58:44.825Z,101278.23
2024-05-09T11:01:12.943Z,101274.10
2024-05-09T11:03:40.821Z,101269.21
2024-05-09T11:06:09.518Z,101269.36
2024-05-09T11:08:38.412Z,101263.52
2024-05-09T11:11:08.066Z,101263.35
2024-05-09T11:13:38.338Z,101257.52
2024-05-09T11:16:15.744Z,101257.96
2024-05-09T11:18:43.659Z,101256.65
2024-05-09T11:21:13.275Z,101249.96
2024-05-09T11:23:41.864Z,101251.95
2024-05-09T11:26:10.537Z,101246.69
2024-05-09T11:28:38.063Z,101250.27
2024-05-09T11:31:08.036Z,101242.69
2024-05-09T11:33:38.182Z,101241.44
2024-05-09T11:36:07.346Z,101243.64
2024-05-09T11:38:35.180Z,101242.60
2024-05-09T11:41:03.675Z,101244.98
2024-05-09T11:43:31.920Z,101244.09
2024-05-09T11:46:00.055Z,101244.46
2024-05-09T11:48:28.161Z,101241.86
2024-05-09T11:50:56.371Z,101238.84
2024-05-09T11:53:23.876Z,101233.67
2024-05-09T11:55:52.086Z,101230.98
2024-05-09T11:58:21.249Z,101230.83
2024-05-09T12:00:49.164Z,101226.27
2024-05-09T12:03:16.884Z,101222.51
2024-05-09T12:05:44.847Z,101221.09
2024-05-09T12:08:12.722Z,101217.23
2024-05-09T12:10:40.389Z,101202.66
2024-05-09T12:13:08.648Z,101204.07
2024-05-09T12:15:37.925Z,101205.15
2024-05-09T12:18:07.761Z,101204.86
2024-05-09T12:20:38.863Z,101199.19
2024-05-09T12:23:09.690Z,101204.14
2024-05-09T12:25:39.590Z,101201.98
2024-05-09T12:28:08.495Z,101203.33
2024-05-09T12:30:41.421Z,101204.13
2024-05-09T12:33:12.374Z,101196.06
2024-05-09T12:35:43.433Z,101193.03
2024-05-09T12:38:14.495Z,101188.02
2024-05-09T12:40:42.462Z,101184.22
2024-05-09T12:43:11.164Z,101182.33
2024-05-09T12:45:40.044Z,101182.27
2024-05-09T12:48:11.333Z,101182.48
2024-05-09T12:50:40.336Z,101186.83
2024-05-09T12:53:07.993Z,101185.98
2024-05-09T12:55:44.105Z,101185.58
2024-05-09T12:58:18.121Z,101178.25
2024-05-09T13:00:46.311Z,101175.63
2024-05-09T13:03:14.787Z,101176.54
2024-05-09T13:05:44.924Z,101175.08
2024-05-09T13:08:13.609Z,101171.17
2024-05-09T13:10:41.602Z,101165.92
2024-05-09T13:13:10.404Z,101163.27
2024-05-09T13:15:38.102Z,101159.27
2024-05-09T13:18:06.406Z,101157.40
2024-05-09T13:20:36.397Z,101162.31
2024-05-09T13:23:06.357Z,101156.79
2024-05-09T13:25:37.102Z,101152.43
2024-05-09T13:28:07.016Z,101150.48
2024-05-09T13:30:40.261Z,101150.90
2024-05-09T13:33:11.689Z,101149.23
2024-05-09T13:35:47.291Z,101147.05
2024-05-09T13:38:19.680Z,101140.55
2024-05-09T13:40:48.126Z,101142.61
2024-05-09T13:43:16.119Z,101143.98
2024-05-09T13:45:43.840Z,101148.71
2024-05-09T13:48:11.727Z,101144.89
2024-05-09T13:50:39.682Z,101138.34
2024-05-09T13:53:08.429Z,101139.32
2024-05-09T13:55:40.423Z,101136.70
2024-05-09T13:58:09.419Z,101127.73
2024-05-09T14:00:46.031Z,101115.59
2024-05-09T14:03:19.725Z,101116.60
2024-05-09T14:05:50.859Z,101114.67
2024-05-09T14:08:22.508Z,101107.02
2024-05-09T14:10:50.867Z,101114.11
2024-05-09T14:13:19.396Z,101108.76
2024-05-09T14:15:47.426Z,101104.85
2024-05-09T14:18:15.222Z,101101.83
2024-05-09T14:20:43.090Z,101103.31
2024-05-09T14:23:11.113Z,101104.09
2024-05-09T14:25:42.088Z,101105.77
2024-05-09T14:28:12.582Z,101105.27
2024-05-09T14:30:41.600Z,101099.16
2024-05-09T14:33:09.763Z,101090.16
2024-05-09T14:35:38.988Z,101084.84
2024-05-09T14:38:08.854Z,101080.69
2024-05-09T14:40:41.992Z,101079.30
2024-05-09T14:43:13.835Z,101075.77
2024-05-09T14:45:43.319Z,101078.13
2024-05-09T14:48:13.890Z,101076.06
2024-05-09T14:50:41.724Z,101073.06
2024-05-09T14:53:10.995Z,101072.15
2024-05-09T14:55:40.426Z,101067.75
2024-05-09T14:58:10.918Z,101064.84
2024-05-09T15:00:45.690Z,101062.27
2024-05-09T15:03:18.558Z,101066.55
2024-05-09T15:05:46.995Z,101066.45
2024-05-09T15:08:17.098Z,101056.25
2024-05-09T15:10:44.862Z,101052.49
2024-05-09T15:13:14.414Z,101049.48
2024-05-09T15:15:44.099Z,101049.84
2024-05-09T15:18:12.685Z,101045.63
2024-05-09T15:20:41.294Z,101040.00
2024-05-09T15:23:09.160Z,101039.77
2024-05-09T15:25:37.376Z,101036.40
2024-05-09T15:28:07.951Z,101033.80
2024-05-09T15:30:36.289Z,101034.64
2024-05-09T15:33:05.028Z,101032.77
2024-05-09T15:35:35.166Z,101029.65
2024-05-09T15:38:03.341Z,101032.19
2024-05-09T15:40:38.093Z,101026.51
2024-05-09T15:43:10.040Z,101024.75
2024-05-09T15:45:40.627Z,101021.17
2024-05-09T15:48:11.390Z,101014.52
2024-05-09T15:50:41.759Z,101007.80
2024-05-09T15:53:13.120Z,101009.95
2024-05-09T15:55:43.010Z,101004.91
2024-05-09T15:58:11.553Z,101000.85
2024-05-09T16:00:42.307Z,100991.90
2024-05-09T16:03:13.595Z,100988.07
2024-05-09T16:05:44.027Z,100985.27
2024-05-09T16:08:12.737Z,100975.91
2024-05-09T16:18:00.844Z,100968.96
2024-05-09T16:20:37.240Z,100959.73
2024-05-09T16:23:08.838Z,100953.04
2024-05-09T16:25:36.915Z,100949.68
2024-05-09T16:28:08.917Z,100949.08
2024-05-09T16:30:39.826Z,100950.48
2024-05-09T16:33:08.703Z,100950.45
2024-05-09T16:35:38.499Z,100949.92
2024-05-09T16:38:06.375Z,100949.70
2024-05-09T16:40:38.846Z,100941.20
2024-05-09T16:43:13.038Z,100938.58
2024-05-09T16:45:45.094Z,100942.33
2024-05-09T16:48:13.752Z,100941.57
2024-05-09T16:50:41.475Z,100939.14
2024-05-09T16:53:09.010Z,100935.71
2024-05-09T16:55:36.850Z,100938.57
2024-05-09T16:58:06.325Z,100936.49
2024-05-09T17:00:40.673Z,100938.39
2024-05-09T17:03:14.456Z,100931.77
2024-05-09T17:05:45.339Z,100933.65
2024-05-09T17:08:15.633Z,100932.13
2024-05-09T17:10:45.073Z,100935.51
2024-05-09T17:13:15.138Z,100936.52
2024-05-09T17:15:42.776Z,100937.24
2024-05-09T17:18:10.615Z,100934.40
2024-05-09T17:20:38.294Z,100934.73
2024-05-09T17:23:15.058Z,100937.04
2024-05-09T17:25:43.039Z,100933.77
2024-05-09T17:28:11.474Z,100933.91
2024-05-09T17:30:41.592Z,100934.00
2024-05-09T17:33:11.310Z,100935.88
2024-05-09T17:35:40.310Z,100938.95
2024-05-09T17:38:08.449Z,100938.08
2024-05-09T17:40:37.948Z,100935.23
2024-05-09T17:43:09.638Z,100933.83
2024-05-09T17:45:40.507Z,100933.03
2024-05-09T17:48:10.785Z,100931.06
2024-05-09T17:50:40.300Z,100928.77
2024-05-09T17:53:09.218Z,100932.17
2024-05-09T17:55:37.035Z,100932.90
2024-05-09T17:58:05.816Z,100934.20
2024-05-09T18:00:38.972Z,100936.27
2024-05-09T18:03:11.976Z,100934.53
2024-05-09T18:05:42.902Z,100932.16
2024-05-09T18:08:11.556Z,100932.03
2024-05-09T18:10:40.727Z,100935.88
2024-05-09T18:13:09.515Z,100935.84
2024-05-09T18:15:38.005Z,100935.38
2024-05-09T18:18:07.186Z,100935.98
2024-05-09T18:20:42.292Z,100938.98
2024-05-09T18:23:17.843Z,100941.64
2024-05-09T18:25:48.004Z,100945.79
2024-05-09T18:28:16.981Z,100951.86
2024-05-09T18:30:46.106Z,100954.67
2024-05-09T18:33:14.178Z,100959.42
2024-05-09T18:35:43.563Z,100962.92
2024-05-09T18:38:11.383Z,100958.34
2024-05-09T18:40:41.028Z,100961.52
2024-05-09T18:43:10.530Z,100959.95
2024-05-09T18:45:39.030Z,100967.83
2024-05-09T18:48:09.046Z,100969.39
2024-05-09T18:50:40.064Z,100969.55
2024-05-09T18:53:11.376Z,100970.09
2024-05-09T18:55:43.397Z,100969.52
2024-05-09T18:58:11.333Z,100967.42
2024-05-09T19:00:41.498Z,100964.94
2024-05-09T19:03:13.759Z,100962.52
2024-05-09T19:05:44.658Z,100967.27
2024-05-09T19:08:14.333Z,100968.53
2024-05-09T19:10:41.932Z,100966.15
2024-05-09T19:13:12.581Z,100972.66
2024-05-09T19:15:42.862Z,100971.63
2024-05-09T19:18:13.217Z,100965.83
2024-05-09T19:20:41.608Z,100970.77
2024-05-09T19:23:10.611Z,100971.21
2024-05-09T19:25:38.083Z,100968.42
2024-05-09T19:28:06.043Z,100963.54
2024-05-09T19:30:39.299Z,100963.42
2024-05-09T19:33:12.573Z,100965.38
2024-05-09T19:35:42.606Z,100965.75
2024-05-09T19:38:10.990Z,100966.34
2024-05-09T19:40:38.576Z,100965.80
2024-05-09T19:43:06.780Z,100968.91
2024-05-09T19:45:35.538Z,100966.52
2024-05-09T19:48:05.133Z,100962.55
2024-05-09T19:50:41.374Z,100963.05
2024-05-09T19:53:13.765Z,100962.54
2024-05-09T19:55:42.196Z,100962.91
2024-05-09T19:58:10.207Z,100959.48
2024-05-09T20:00:40.584Z,100960.45
2024-05-09T20:03:12.300Z,100961.75
2024-05-09T20:05:42.588Z,100963.42
2024-05-09T20:08:11.234Z,100966.41
2024-05-09T20:10:38.771Z,100965.98
2024-05-09T20:13:08.015Z,100968.02
2024-05-09T20:15:38.774Z,100971.82
2024-05-09T20:18:07.545Z,100970.11
2024-05-09T20:20:39.685Z,100969.43
2024-05-09T20:23:11.075Z,100969.27
2024-05-09T20:25:38.803Z,100973.34
2024-05-09T20:28:07.676Z,100967.13
2024-05-09T20:30:36.446Z,100973.05
2024-05-09T20:33:09.244Z,100972.91
2024-05-09T20:35:37.537Z,100975.26
2024-05-09T20:38:05.319Z,100976.15
2024-05-09T20:40:36.985Z,100979.66
2024-05-09T20:43:10.716Z,100976.35
2024-05-09T20:45:39.824Z,100969.66
2024-05-09T20:48:08.674Z,100965.54
2024-05-09T20:50:40.408Z,100966.11
2024-05-09T20:53:14.693Z,100965.27
2024-05-09T20:55:43.808Z,100967.95
2024-05-09T20:58:12.423Z,100972.75
2024-05-09T21:00:43.866Z,100969.19
2024-05-09T21:03:16.402Z,100969.14
2024-05-09T21:05:45.898Z,100968.45
2024-05-09T21:08:14.660Z,100969.97
2024-05-09T21:10:42.273Z,100967.89
2024-05-09T21:13:09.903Z,100968.16
2024-05-09T21:15:37.568Z,100968.29
2024-05-09T21:18:05.514Z,100964.77
2024-05-09T21:20:34.574Z,100963.63
2024-05-09T21:23:04.972Z,100963.23
2024-05-09T21:25:32.591Z,100964.31
2024-05-09T21:28:00.593Z,100962.74
2024-05-09T21:30:38.370Z,100957.67
2024-05-09T21:33:12.244Z,100958.35
2024-05-09T21:35:42.691Z,100961.79
2024-05-09T21:38:10.273Z,100958.45
2024-05-09T21:40:38.760Z,100955.77
2024-05-09T21:43:07.502Z,100956.64
2024-05-09T21:45:36.347Z,100956.98
2024-05-09T21:48:05.092Z,100954.02
2024-05-09T21:50:39.601Z,100956.45
2024-05-09T21:53:13.128Z,100955.73
2024-05-09T21:55:42.648Z,100956.84
2024-05-09T21:58:13.031Z,100957.44
2024-05-09T22:00:46.079Z,100956.47
2024-05-09T22:03:32.032Z,100954.01
2024-05-09T22:06:17.198Z,100956.25
2024-05-09T22:08:45.788Z,100950.17
2024-05-09T22:11:13.256Z,100953.34
2024-05-09T22:13:40.695Z,100950.77
2024-05-09T22:16:08.476Z,100946.32
2024-05-09T22:18:36.028Z,100946.73
2024-05-09T22:21:03.800Z,100945.39
2024-05-09T22:23:31.305Z,100944.45
2024-05-09T22:25:58.669Z,100947.32
2024-05-09T22:28:26.248Z,100939.45
2024-05-09T22:30:55.185Z,100940.30
2024-05-09T22:33:22.760Z,100937.73
2024-05-09T22:35:51.217Z,100936.83
2024-05-09T22:38:18.752Z,100933.45
2024-05-09T22:40:49.136Z,100934.77
2024-05-09T22:43:23.956Z,100933.59
2024-05-09T22:45:54.317Z,100930.38
2024-05-09T22:48:23.121Z,100927.69
2024-05-09T22:50:50.971Z,100929.44
2024-05-09T22:53:18.393Z,100927.39
2024-05-09T22:55:45.861Z,100927.27
2024-05-09T23:00:54.876Z,100933.64
2024-05-09T23:03:22.941Z,100933.83
2024-05-09T23:05:52.808Z,100935.59
2024-05-09T23:08:20.699Z,100935.65
2024-05-09T23:10:48.815Z,100935.52
2024-05-09T23:13:16.516Z,100936.90
2024-05-09T23:15:44.022Z,100933.19
2024-05-09T23:18:11.676Z,100929.45
2024-05-09T23:20:40.241Z,100926.60
2024-05-09T23:23:10.025Z,100924.91
2024-05-09T23:25:40.848Z,100923.98
2024-05-09T23:28:08.803Z,100921.60
2024-05-09T23:30:39.726Z,100921.91
2024-05-09T23:33:11.624Z,100921.33
2024-05-09T23:35:41.207Z,100916.25
2024-05-09T23:38:09.010Z,100913.37
2024-05-09T23:40:39.725Z,100916.02
2024-05-09T23:43:10.263Z,100912.84
2024-05-09T23:45:38.230Z,100913.14
2024-05-09T23:48:06.311Z,100911.19
2024-05-09T23:50:37.550Z,100911.56
2024-05-09T23:53:08.441Z,100904.40
2024-05-09T23:55:37.738Z,100906.48
2024-05-09T23:58:06.629Z,100905.66
